sensor_id;sensor_type;location;lat;lon;timestamp;P1;durP1;ratioP1;P2;durP2;ratioP2
77402;SDS011;66472;53.046;8.656;2023-04-10T00:04:12;34.05;;;23.50;;
77402;SDS011;66472;53.046;8.656;2023-04-10T00:09:08;33.73;;;21.77;;
77402;SDS011;66472;53.046;8.656;2023-04-10T00:14:04;34.83;;;22.07;;
77402;SDS011;66472;53.046;8.656;2023-04-10T00:18:59;35.57;;;24.80;;
77402;SDS011;66472;53.046;8.656;2023-04-10T00:23:55;33.80;;;23.07;;
77402;SDS011;66472;53.046;8.656;2023-04-10T00:28:50;37.47;;;25.07;;
77402;SDS011;66472;53.046;8.656;2023-04-10T00:33:45;37.80;;;25.97;;
77402;SDS011;66472;53.046;8.656;2023-04-10T00:38:41;34.53;;;24.00;;
77402;SDS011;66472;53.046;8.656;2023-04-10T00:43:36;38.93;;;25.83;;
77402;SDS011;66472;53.046;8.656;2023-04-10T00:48:32;38.80;;;26.60;;
77402;SDS011;66472;53.046;8.656;2023-04-10T00:53:27;36.60;;;24.40;;
77402;SDS011;66472;53.046;8.656;2023-04-10T00:58:23;39.00;;;26.37;;
77402;SDS011;66472;53.046;8.656;2023-04-10T01:03:20;41.80;;;26.93;;
77402;SDS011;66472;53.046;8.656;2023-04-10T01:08:25;43.40;;;27.13;;
77402;SDS011;66472;53.046;8.656;2023-04-10T01:13:26;36.10;;;24.73;;
77402;SDS011;66472;53.046;8.656;2023-04-10T01:18:24;36.53;;;26.43;;
77402;SDS011;66472;53.046;8.656;2023-04-10T01:29:31;37.80;;;28.20;;
77402;SDS011;66472;53.046;8.656;2023-04-10T01:33:57;40.00;;;27.37;;
77402;SDS011;66472;53.046;8.656;2023-04-10T01:38:54;39.83;;;29.47;;
77402;SDS011;66472;53.046;8.656;2023-04-10T01:43:51;44.10;;;28.63;;
77402;SDS011;66472;53.046;8.656;2023-04-10T01:48:48;41.03;;;29.60;;
77402;SDS011;66472;53.046;8.656;2023-04-10T01:53:43;50.27;;;30.77;;
77402;SDS011;66472;53.046;8.656;2023-04-10T01:58:42;45.67;;;31.00;;
77402;SDS011;66472;53.046;8.656;2023-04-10T02:03:38;42.60;;;29.57;;
77402;SDS011;66472;53.046;8.656;2023-04-10T02:08:33;45.53;;;30.55;;
77402;SDS011;66472;53.046;8.656;2023-04-10T02:13:34;43.63;;;30.73;;
77402;SDS011;66472;53.046;8.656;2023-04-10T02:18:32;47.87;;;29.30;;
77402;SDS011;66472;53.046;8.656;2023-04-10T02:23:28;49.00;;;31.57;;
77402;SDS011;66472;53.046;8.656;2023-04-10T02:28:23;45.70;;;32.23;;
77402;SDS011;66472;53.046;8.656;2023-04-10T02:33:20;46.20;;;31.20;;
77402;SDS011;66472;53.046;8.656;2023-04-10T02:38:15;44.35;;;30.80;;
77402;SDS011;66472;53.046;8.656;2023-04-10T02:43:10;43.60;;;31.43;;
77402;SDS011;66472;53.046;8.656;2023-04-10T02:48:06;50.53;;;33.47;;
77402;SDS011;66472;53.046;8.656;2023-04-10T02:53:01;48.07;;;33.37;;
77402;SDS011;66472;53.046;8.656;2023-04-10T02:57:57;44.43;;;32.80;;
77402;SDS011;66472;53.046;8.656;2023-04-10T03:02:52;47.97;;;35.10;;
77402;SDS011;66472;53.046;8.656;2023-04-10T03:07:49;51.40;;;34.43;;
77402;SDS011;66472;53.046;8.656;2023-04-10T03:12:46;50.97;;;36.23;;
77402;SDS011;66472;53.046;8.656;2023-04-10T03:17:42;44.40;;;31.23;;
77402;SDS011;66472;53.046;8.656;2023-04-10T03:22:38;49.22;;;34.38;;
77402;SDS011;66472;53.046;8.656;2023-04-10T03:27:35;136.65;;;125.05;;
77402;SDS011;66472;53.046;8.656;2023-04-10T03:32:31;54.17;;;38.47;;
77402;SDS011;66472;53.046;8.656;2023-04-10T03:37:26;46.30;;;35.33;;
77402;SDS011;66472;53.046;8.656;2023-04-10T03:42:22;51.97;;;35.70;;
77402;SDS011;66472;53.046;8.656;2023-04-10T03:47:18;52.33;;;35.33;;
77402;SDS011;66472;53.046;8.656;2023-04-10T03:52:17;55.03;;;36.13;;
77402;SDS011;66472;53.046;8.656;2023-04-10T03:57:14;48.67;;;33.17;;
77402;SDS011;66472;53.046;8.656;2023-04-10T04:02:09;46.07;;;32.60;;
77402;SDS011;66472;53.046;8.656;2023-04-10T04:07:06;48.17;;;32.53;;
77402;SDS011;66472;53.046;8.656;2023-04-10T04:12:30;50.47;;;35.13;;
77402;SDS011;66472;53.046;8.656;2023-04-10T04:17:52;45.47;;;32.43;;
77402;SDS011;66472;53.046;8.656;2023-04-10T04:23:05;53.13;;;34.27;;
77402;SDS011;66472;53.046;8.656;2023-04-10T04:28:11;51.43;;;37.43;;
77402;SDS011;66472;53.046;8.656;2023-04-10T04:33:24;46.93;;;33.07;;
77402;SDS011;66472;53.046;8.656;2023-04-10T04:38:25;52.77;;;35.17;;
77402;SDS011;66472;53.046;8.656;2023-04-10T04:43:40;49.50;;;34.80;;
77402;SDS011;66472;53.046;8.656;2023-04-10T04:48:56;45.23;;;34.10;;
77402;SDS011;66472;53.046;8.656;2023-04-10T04:54:14;48.03;;;33.27;;
77402;SDS011;66472;53.046;8.656;2023-04-10T04:59:32;50.80;;;33.07;;
77402;SDS011;66472;53.046;8.656;2023-04-10T05:04:33;50.80;;;34.87;;
77402;SDS011;66472;53.046;8.656;2023-04-10T05:09:52;46.27;;;33.40;;
77402;SDS011;66472;53.046;8.656;2023-04-10T05:15:06;50.87;;;33.87;;
77402;SDS011;66472;53.046;8.656;2023-04-10T05:20:27;44.93;;;32.93;;
77402;SDS011;66472;53.046;8.656;2023-04-10T05:25:32;47.67;;;33.63;;
77402;SDS011;66472;53.046;8.656;2023-04-10T05:30:32;41.53;;;31.77;;
77402;SDS011;66472;53.046;8.656;2023-04-10T05:35:57;44.73;;;29.33;;
77402;SDS011;66472;53.046;8.656;2023-04-10T05:41:05;47.20;;;32.30;;
77402;SDS011;66472;53.046;8.656;2023-04-10T05:46:05;42.80;;;29.87;;
77402;SDS011;66472;53.046;8.656;2023-04-10T05:51:32;41.10;;;27.80;;
77402;SDS011;66472;53.046;8.656;2023-04-10T05:56:58;37.73;;;28.93;;
77402;SDS011;66472;53.046;8.656;2023-04-10T06:01:59;38.00;;;27.50;;
77402;SDS011;66472;53.046;8.656;2023-04-10T06:06:55;39.03;;;25.90;;
77402;SDS011;66472;53.046;8.656;2023-04-10T06:11:50;33.63;;;25.03;;
77402;SDS011;66472;53.046;8.656;2023-04-10T06:16:50;37.17;;;25.80;;
77402;SDS011;66472;53.046;8.656;2023-04-10T06:21:45;30.57;;;23.43;;
77402;SDS011;66472;53.046;8.656;2023-04-10T06:26:41;30.17;;;24.97;;
77402;SDS011;66472;53.046;8.656;2023-04-10T06:31:37;31.93;;;23.63;;
77402;SDS011;66472;53.046;8.656;2023-04-10T06:36:33;29.93;;;21.50;;
77402;SDS011;66472;53.046;8.656;2023-04-10T06:41:32;24.83;;;20.53;;
77402;SDS011;66472;53.046;8.656;2023-04-10T06:46:41;27.57;;;18.90;;
77402;SDS011;66472;53.046;8.656;2023-04-10T06:51:36;23.63;;;19.20;;
77402;SDS011;66472;53.046;8.656;2023-04-10T06:56:31;21.25;;;17.35;;
77402;SDS011;66472;53.046;8.656;2023-04-10T07:01:27;21.90;;;17.07;;
77402;SDS011;66472;53.046;8.656;2023-04-10T07:06:22;21.77;;;16.70;;
77402;SDS011;66472;53.046;8.656;2023-04-10T07:11:17;17.50;;;14.23;;
77402;SDS011;66472;53.046;8.656;2023-04-10T07:16:12;18.43;;;14.37;;
77402;SDS011;66472;53.046;8.656;2023-04-10T07:21:10;18.23;;;14.50;;
77402;SDS011;66472;53.046;8.656;2023-04-10T07:26:07;18.03;;;14.23;;
77402;SDS011;66472;53.046;8.656;2023-04-10T07:31:02;17.37;;;14.27;;
77402;SDS011;66472;53.046;8.656;2023-04-10T07:35:57;15.97;;;13.30;;
77402;SDS011;66472;53.046;8.656;2023-04-10T07:40:56;17.37;;;13.80;;
77402;SDS011;66472;53.046;8.656;2023-04-10T07:45:51;13.53;;;12.13;;
77402;SDS011;66472;53.046;8.656;2023-04-10T07:50:46;15.27;;;11.47;;
77402;SDS011;66472;53.046;8.656;2023-04-10T07:55:43;13.97;;;11.20;;
77402;SDS011;66472;53.046;8.656;2023-04-10T08:00:38;13.50;;;12.03;;
77402;SDS011;66472;53.046;8.656;2023-04-10T08:05:33;13.20;;;11.10;;
77402;SDS011;66472;53.046;8.656;2023-04-10T08:10:28;11.10;;;9.77;;
77402;SDS011;66472;53.046;8.656;2023-04-10T08:15:24;14.00;;;11.13;;
77402;SDS011;66472;53.046;8.656;2023-04-10T08:20:19;17.27;;;12.63;;
77402;SDS011;66472;53.046;8.656;2023-04-10T08:25:15;11.83;;;10.67;;
77402;SDS011;66472;53.046;8.656;2023-04-10T08:30:10;12.77;;;10.47;;
77402;SDS011;66472;53.046;8.656;2023-04-10T08:35:05;12.20;;;10.73;;
77402;SDS011;66472;53.046;8.656;2023-04-10T08:40:01;12.57;;;10.10;;
77402;SDS011;66472;53.046;8.656;2023-04-10T08:44:56;11.30;;;9.43;;
77402;SDS011;66472;53.046;8.656;2023-04-10T08:54:47;11.33;;;10.13;;
77402;SDS011;66472;53.046;8.656;2023-04-10T08:59:45;10.70;;;9.60;;
77402;SDS011;66472;53.046;8.656;2023-04-10T09:04:43;11.67;;;9.40;;
77402;SDS011;66472;53.046;8.656;2023-04-10T09:09:41;11.60;;;9.80;;
77402;SDS011;66472;53.046;8.656;2023-04-10T09:14:36;11.13;;;10.13;;
77402;SDS011;66472;53.046;8.656;2023-04-10T09:19:32;11.97;;;10.73;;
77402;SDS011;66472;53.046;8.656;2023-04-10T09:24:27;9.57;;;8.77;;
77402;SDS011;66472;53.046;8.656;2023-04-10T09:29:23;11.30;;;10.27;;
77402;SDS011;66472;53.046;8.656;2023-04-10T09:34:20;10.80;;;9.70;;
77402;SDS011;66472;53.046;8.656;2023-04-10T09:39:16;9.23;;;8.27;;
77402;SDS011;66472;53.046;8.656;2023-04-10T09:44:11;11.40;;;8.50;;
77402;SDS011;66472;53.046;8.656;2023-04-10T09:49:06;8.50;;;7.70;;
77402;SDS011;66472;53.046;8.656;2023-04-10T09:54:03;8.53;;;7.73;;
77402;SDS011;66472;53.046;8.656;2023-04-10T09:58:59;7.97;;;7.27;;
77402;SDS011;66472;53.046;8.656;2023-04-10T10:03:55;9.60;;;7.67;;
77402;SDS011;66472;53.046;8.656;2023-04-10T10:08:52;8.53;;;7.73;;
77402;SDS011;66472;53.046;8.656;2023-04-10T10:13:50;7.33;;;6.63;;
77402;SDS011;66472;53.046;8.656;2023-04-10T10:18:56;7.60;;;6.90;;
77402;SDS011;66472;53.046;8.656;2023-04-10T10:23:54;9.10;;;7.93;;
77402;SDS011;66472;53.046;8.656;2023-04-10T10:28:50;9.70;;;8.90;;
77402;SDS011;66472;53.046;8.656;2023-04-10T10:33:51;11.00;;;10.00;;
77402;SDS011;66472;53.046;8.656;2023-04-10T10:38:49;8.90;;;8.10;;
77402;SDS011;66472;53.046;8.656;2023-04-10T10:48:58;10.33;;;9.53;;
77402;SDS011;66472;53.046;8.656;2023-04-10T10:53:54;8.73;;;7.93;;
77402;SDS011;66472;53.046;8.656;2023-04-10T11:03:44;8.87;;;8.17;;
77402;SDS011;66472;53.046;8.656;2023-04-10T11:08:41;8.50;;;7.70;;
77402;SDS011;66472;53.046;8.656;2023-04-10T11:13:41;6.07;;;5.57;;
77402;SDS011;66472;53.046;8.656;2023-04-10T11:28:46;7.97;;;7.27;;
77402;SDS011;66472;53.046;8.656;2023-04-10T11:33:42;8.63;;;7.90;;
77402;SDS011;66472;53.046;8.656;2023-04-10T11:38:37;10.27;;;6.63;;
77402;SDS011;66472;53.046;8.656;2023-04-10T11:43:32;7.70;;;6.27;;
77402;SDS011;66472;53.046;8.656;2023-04-10T11:48:29;6.73;;;6.13;;
77402;SDS011;66472;53.046;8.656;2023-04-10T11:53:24;7.37;;;6.70;;
77402;SDS011;66472;53.046;8.656;2023-04-10T11:58:25;6.67;;;6.07;;
77402;SDS011;66472;53.046;8.656;2023-04-10T12:03:30;7.20;;;6.60;;
77402;SDS011;66472;53.046;8.656;2023-04-10T12:08:32;7.50;;;6.80;;
77402;SDS011;66472;53.046;8.656;2023-04-10T12:13:28;6.40;;;5.80;;
77402;SDS011;66472;53.046;8.656;2023-04-10T12:18:23;7.97;;;6.53;;
77402;SDS011;66472;53.046;8.656;2023-04-10T12:23:19;7.60;;;7.03;;
77402;SDS011;66472;53.046;8.656;2023-04-10T12:28:18;8.20;;;7.50;;
77402;SDS011;66472;53.046;8.656;2023-04-10T12:33:18;9.30;;;8.50;;
77402;SDS011;66472;53.046;8.656;2023-04-10T12:38:14;9.50;;;8.73;;
77402;SDS011;66472;53.046;8.656;2023-04-10T12:43:09;9.03;;;8.33;;
77402;SDS011;66472;53.046;8.656;2023-04-10T12:48:05;8.43;;;7.83;;
77402;SDS011;66472;53.046;8.656;2023-04-10T12:53:01;7.80;;;7.20;;
77402;SDS011;66472;53.046;8.656;2023-04-10T12:57:56;8.90;;;8.20;;
77402;SDS011;66472;53.046;8.656;2023-04-10T13:02:52;7.67;;;7.07;;
77402;SDS011;66472;53.046;8.656;2023-04-10T13:07:47;6.60;;;6.10;;
77402;SDS011;66472;53.046;8.656;2023-04-10T13:12:46;4.90;;;4.50;;
77402;SDS011;66472;53.046;8.656;2023-04-10T13:17:41;7.60;;;5.57;;
77402;SDS011;66472;53.046;8.656;2023-04-10T13:22:37;6.37;;;5.83;;
77402;SDS011;66472;53.046;8.656;2023-04-10T13:27:32;8.20;;;6.37;;
77402;SDS011;66472;53.046;8.656;2023-04-10T13:32:27;8.03;;;7.43;;
77402;SDS011;66472;53.046;8.656;2023-04-10T13:37:22;10.47;;;9.67;;
77402;SDS011;66472;53.046;8.656;2023-04-10T13:42:18;8.23;;;7.47;;
77402;SDS011;66472;53.046;8.656;2023-04-10T13:47:13;12.17;;;11.07;;
77402;SDS011;66472;53.046;8.656;2023-04-10T13:52:08;7.37;;;6.80;;
77402;SDS011;66472;53.046;8.656;2023-04-10T13:57:03;5.87;;;5.37;;
77402;SDS011;66472;53.046;8.656;2023-04-10T14:01:59;6.53;;;6.03;;
77402;SDS011;66472;53.046;8.656;2023-04-10T14:06:54;6.90;;;6.33;;
77402;SDS011;66472;53.046;8.656;2023-04-10T14:11:52;7.10;;;6.37;;
77402;SDS011;66472;53.046;8.656;2023-04-10T14:16:48;6.80;;;6.20;;
77402;SDS011;66472;53.046;8.656;2023-04-10T14:21:43;12.50;;;11.27;;
77402;SDS011;66472;53.046;8.656;2023-04-10T14:26:39;8.13;;;7.53;;
77402;SDS011;66472;53.046;8.656;2023-04-10T14:31:34;4.90;;;4.50;;
77402;SDS011;66472;53.046;8.656;2023-04-10T14:36:29;5.00;;;4.60;;
77402;SDS011;66472;53.046;8.656;2023-04-10T14:41:26;5.67;;;5.10;;
77402;SDS011;66472;53.046;8.656;2023-04-10T14:46:22;7.40;;;6.87;;
77402;SDS011;66472;53.046;8.656;2023-04-10T14:51:19;5.10;;;4.70;;
77402;SDS011;66472;53.046;8.656;2023-04-10T14:56:14;6.60;;;5.20;;
77402;SDS011;66472;53.046;8.656;2023-04-10T15:01:10;5.37;;;4.97;;
77402;SDS011;66472;53.046;8.656;2023-04-10T15:06:05;4.90;;;4.50;;
77402;SDS011;66472;53.046;8.656;2023-04-10T15:11:01;6.00;;;5.10;;
77402;SDS011;66472;53.046;8.656;2023-04-10T15:15:59;7.07;;;5.47;;
77402;SDS011;66472;53.046;8.656;2023-04-10T15:20:54;5.30;;;4.90;;
77402;SDS011;66472;53.046;8.656;2023-04-10T15:25:52;5.77;;;5.30;;
77402;SDS011;66472;53.046;8.656;2023-04-10T15:30:49;5.53;;;5.03;;
77402;SDS011;66472;53.046;8.656;2023-04-10T15:35:47;5.45;;;5.05;;
77402;SDS011;66472;53.046;8.656;2023-04-10T15:40:43;6.83;;;5.00;;
77402;SDS011;66472;53.046;8.656;2023-04-10T15:45:39;5.43;;;4.97;;
77402;SDS011;66472;53.046;8.656;2023-04-10T15:50:35;6.07;;;4.93;;
77402;SDS011;66472;53.046;8.656;2023-04-10T15:55:30;5.40;;;5.00;;
77402;SDS011;66472;53.046;8.656;2023-04-10T16:00:26;7.43;;;6.40;;
77402;SDS011;66472;53.046;8.656;2023-04-10T16:05:21;5.63;;;5.13;;
77402;SDS011;66472;53.046;8.656;2023-04-10T16:10:16;6.17;;;5.43;;
77402;SDS011;66472;53.046;8.656;2023-04-10T16:15:12;5.37;;;4.93;;
77402;SDS011;66472;53.046;8.656;2023-04-10T16:20:07;8.37;;;5.17;;
77402;SDS011;66472;53.046;8.656;2023-04-10T16:25:02;5.67;;;5.10;;
77402;SDS011;66472;53.046;8.656;2023-04-10T16:29:58;6.00;;;5.43;;
77402;SDS011;66472;53.046;8.656;2023-04-10T16:34:53;6.13;;;5.53;;
77402;SDS011;66472;53.046;8.656;2023-04-10T16:39:48;5.33;;;4.83;;
77402;SDS011;66472;53.046;8.656;2023-04-10T16:44:44;5.53;;;5.13;;
77402;SDS011;66472;53.046;8.656;2023-04-10T16:49:39;5.47;;;4.97;;
77402;SDS011;66472;53.046;8.656;2023-04-10T16:54:39;5.73;;;5.03;;
77402;SDS011;66472;53.046;8.656;2023-04-10T16:59:34;4.90;;;4.50;;
77402;SDS011;66472;53.046;8.656;2023-04-10T17:04:30;4.90;;;4.57;;
77402;SDS011;66472;53.046;8.656;2023-04-10T17:09:25;4.70;;;4.40;;
77402;SDS011;66472;53.046;8.656;2023-04-10T17:14:20;4.43;;;4.13;;
77402;SDS011;66472;53.046;8.656;2023-04-10T17:19:15;4.70;;;4.30;;
77402;SDS011;66472;53.046;8.656;2023-04-10T17:24:11;5.10;;;4.70;;
77402;SDS011;66472;53.046;8.656;2023-04-10T17:29:06;3.50;;;3.30;;
77402;SDS011;66472;53.046;8.656;2023-04-10T17:34:02;3.37;;;3.17;;
77402;SDS011;66472;53.046;8.656;2023-04-10T17:38:59;4.07;;;3.77;;
77402;SDS011;66472;53.046;8.656;2023-04-10T17:43:54;3.90;;;3.60;;
77402;SDS011;66472;53.046;8.656;2023-04-10T17:48:49;3.43;;;3.20;;
77402;SDS011;66472;53.046;8.656;2023-04-10T17:53:45;4.43;;;3.33;;
77402;SDS011;66472;53.046;8.656;2023-04-10T17:58:43;3.70;;;3.40;;
77402;SDS011;66472;53.046;8.656;2023-04-10T18:03:39;3.53;;;3.33;;
77402;SDS011;66472;53.046;8.656;2023-04-10T18:08:34;3.60;;;3.40;;
77402;SDS011;66472;53.046;8.656;2023-04-10T18:13:29;3.47;;;3.28;;
77402;SDS011;66472;53.046;8.656;2023-04-10T18:18:25;3.83;;;3.63;;
77402;SDS011;66472;53.046;8.656;2023-04-10T18:23:20;4.27;;;3.97;;
77402;SDS011;66472;53.046;8.656;2023-04-10T18:28:18;3.60;;;3.40;;
77402;SDS011;66472;53.046;8.656;2023-04-10T18:33:13;4.07;;;3.78;;
77402;SDS011;66472;53.046;8.656;2023-04-10T18:38:14;4.20;;;3.90;;
77402;SDS011;66472;53.046;8.656;2023-04-10T18:43:10;4.03;;;3.73;;
77402;SDS011;66472;53.046;8.656;2023-04-10T18:48:05;6.07;;;5.47;;
77402;SDS011;66472;53.046;8.656;2023-04-10T18:53:00;4.80;;;4.30;;
77402;SDS011;66472;53.046;8.656;2023-04-10T18:57:56;5.70;;;5.13;;
77402;SDS011;66472;53.046;8.656;2023-04-10T19:02:51;4.23;;;3.90;;
77402;SDS011;66472;53.046;8.656;2023-04-10T19:07:47;4.97;;;4.57;;
77402;SDS011;66472;53.046;8.656;2023-04-10T19:12:42;4.93;;;4.53;;
77402;SDS011;66472;53.046;8.656;2023-04-10T19:17:37;4.80;;;4.40;;
77402;SDS011;66472;53.046;8.656;2023-04-10T19:22:33;5.13;;;4.73;;
77402;SDS011;66472;53.046;8.656;2023-04-10T19:27:28;4.97;;;4.57;;
77402;SDS011;66472;53.046;8.656;2023-04-10T19:32:24;4.33;;;4.03;;
77402;SDS011;66472;53.046;8.656;2023-04-10T19:37:19;4.60;;;4.30;;
77402;SDS011;66472;53.046;8.656;2023-04-10T19:42:17;3.93;;;3.73;;
77402;SDS011;66472;53.046;8.656;2023-04-10T19:47:12;5.00;;;4.60;;
77402;SDS011;66472;53.046;8.656;2023-04-10T19:52:08;4.33;;;3.90;;
77402;SDS011;66472;53.046;8.656;2023-04-10T19:57:03;5.20;;;4.80;;
77402;SDS011;66472;53.046;8.656;2023-04-10T20:01:58;6.23;;;5.63;;
77402;SDS011;66472;53.046;8.656;2023-04-10T20:06:53;7.57;;;6.97;;
77402;SDS011;66472;53.046;8.656;2023-04-10T20:11:49;8.73;;;8.13;;
77402;SDS011;66472;53.046;8.656;2023-04-10T20:16:44;12.85;;;10.18;;
77402;SDS011;66472;53.046;8.656;2023-04-10T20:21:40;15.13;;;13.93;;
77402;SDS011;66472;53.046;8.656;2023-04-10T20:26:35;13.70;;;12.83;;
77402;SDS011;66472;53.046;8.656;2023-04-10T20:31:30;15.93;;;14.73;;
77402;SDS011;66472;53.046;8.656;2023-04-10T20:36:26;18.03;;;16.73;;
77402;SDS011;66472;53.046;8.656;2023-04-10T20:41:21;22.53;;;21.13;;
77402;SDS011;66472;53.046;8.656;2023-04-10T20:46:16;18.55;;;17.45;;
77402;SDS011;66472;53.046;8.656;2023-04-10T20:51:12;18.17;;;17.17;;
77402;SDS011;66472;53.046;8.656;2023-04-10T20:56:07;23.17;;;21.83;;
77402;SDS011;66472;53.046;8.656;2023-04-10T21:01:02;29.93;;;28.03;;
77402;SDS011;66472;53.046;8.656;2023-04-10T21:05:58;22.17;;;20.58;;
77402;SDS011;66472;53.046;8.656;2023-04-10T21:10:53;27.40;;;25.45;;
77402;SDS011;66472;53.046;8.656;2023-04-10T21:15:50;26.13;;;24.60;;
77402;SDS011;66472;53.046;8.656;2023-04-10T21:20:45;29.03;;;27.17;;
77402;SDS011;66472;53.046;8.656;2023-04-10T21:25:47;25.37;;;23.50;;
77402;SDS011;66472;53.046;8.656;2023-04-10T21:30:42;28.33;;;26.50;;
77402;SDS011;66472;53.046;8.656;2023-04-10T21:35:37;28.47;;;26.30;;
77402;SDS011;66472;53.046;8.656;2023-04-10T21:40:32;28.23;;;26.53;;
77402;SDS011;66472;53.046;8.656;2023-04-10T21:45:29;28.80;;;27.00;;
77402;SDS011;66472;53.046;8.656;2023-04-10T21:50:24;27.93;;;26.10;;
77402;SDS011;66472;53.046;8.656;2023-04-10T21:55:19;24.47;;;22.87;;
77402;SDS011;66472;53.046;8.656;2023-04-10T22:00:15;24.33;;;22.90;;
77402;SDS011;66472;53.046;8.656;2023-04-10T22:05:11;22.53;;;21.20;;
77402;SDS011;66472;53.046;8.656;2023-04-10T22:10:07;18.83;;;17.73;;
77402;SDS011;66472;53.046;8.656;2023-04-10T22:15:02;21.67;;;20.23;;
77402;SDS011;66472;53.046;8.656;2023-04-10T22:19:58;28.10;;;26.27;;
77402;SDS011;66472;53.046;8.656;2023-04-10T22:24:53;24.92;;;23.02;;
77402;SDS011;66472;53.046;8.656;2023-04-10T22:29:48;25.60;;;23.92;;
77402;SDS011;66472;53.046;8.656;2023-04-10T22:34:44;24.80;;;23.10;;
77402;SDS011;66472;53.046;8.656;2023-04-10T22:39:39;24.27;;;22.67;;
77402;SDS011;66472;53.046;8.656;2023-04-10T22:44:34;22.77;;;21.50;;
77402;SDS011;66472;53.046;8.656;2023-04-10T22:49:29;21.53;;;20.20;;
77402;SDS011;66472;53.046;8.656;2023-04-10T22:54:26;23.60;;;22.07;;
77402;SDS011;66472;53.046;8.656;2023-04-10T22:59:22;21.00;;;19.70;;
77402;SDS011;66472;53.046;8.656;2023-04-10T23:04:17;20.10;;;18.90;;
77402;SDS011;66472;53.046;8.656;2023-04-10T23:09:12;21.47;;;20.10;;
77402;SDS011;66472;53.046;8.656;2023-04-10T23:14:07;19.77;;;18.58;;
77402;SDS011;66472;53.046;8.656;2023-04-10T23:19:03;21.70;;;20.43;;
77402;SDS011;66472;53.046;8.656;2023-04-10T23:23:58;24.87;;;23.10;;
77402;SDS011;66472;53.046;8.656;2023-04-10T23:28:53;21.97;;;20.47;;
77402;SDS011;66472;53.046;8.656;2023-04-10T23:33:49;20.73;;;19.23;;
77402;SDS011;66472;53.046;8.656;2023-04-10T23:38:44;18.83;;;17.77;;
77402;SDS011;66472;53.046;8.656;2023-04-10T23:43:39;20.13;;;19.03;;
77402;SDS011;66472;53.046;8.656;2023-04-10T23:48:35;22.73;;;21.30;;
77402;SDS011;66472;53.046;8.656;2023-04-10T23:53:30;22.17;;;20.77;;
77402;SDS011;66472;53.046;8.656;2023-04-10T23:58:26;20.07;;;18.77;;
